sensor_id;sensor_type;location;lat;lon;timestamp;pressure;altitude;pressure_sealevel;temperature;humidity
73453;BME280;61687;56.232;43.854;2022-08-03T00:00:43;101007.28;;;16.41;78.95
73453;BME280;61687;56.232;43.854;2022-08-03T00:03:09;101004.09;;;16.39;78.96
73453;BME280;61687;56.232;43.854;2022-08-03T00:05:36;101001.34;;;16.39;78.93
73453;BME280;61687;56.232;43.854;2022-08-03T00:08:02;101008.88;;;16.38;78.88
73453;BME280;61687;56.232;43.854;2022-08-03T00:10:28;101012.00;;;16.37;78.96
73453;BME280;61687;56.232;43.854;2022-08-03T00:12:54;101007.25;;;16.34;79.02
73453;BME280;61687;56.232;43.854;2022-08-03T00:15:20;101019.13;;;16.34;79.28
73453;BME280;61687;56.232;43.854;2022-08-03T00:17:46;101017.53;;;16.33;79.10
73453;BME280;61687;56.232;43.854;2022-08-03T00:20:12;101026.22;;;16.31;79.13
73453;BME280;61687;56.232;43.854;2022-08-03T00:22:38;101027.41;;;16.30;79.31
73453;BME280;61687;56.232;43.854;2022-08-03T00:25:05;101031.34;;;16.29;79.29
73453;BME280;61687;56.232;43.854;2022-08-03T00:27:31;101023.44;;;16.28;79.31
73453;BME280;61687;56.232;43.854;2022-08-03T00:29:57;101032.13;;;16.26;79.16
73453;BME280;61687;56.232;43.854;2022-08-03T00:32:23;101031.34;;;16.26;79.15
73453;BME280;61687;56.232;43.854;2022-08-03T00:34:49;101032.88;;;16.23;79.23
73453;BME280;61687;56.232;43.854;2022-08-03T00:37:15;101028.94;;;16.21;79.30
73453;BME280;61687;56.232;43.854;2022-08-03T00:39:41;101030.13;;;16.20;79.35
73453;BME280;61687;56.232;43.854;2022-08-03T00:42:08;101032.50;;;16.17;79.42
73453;BME280;61687;56.232;43.854;2022-08-03T00:44:41;101026.97;;;16.17;79.37
73453;BME280;61687;56.232;43.854;2022-08-03T00:47:08;101032.88;;;16.16;79.25
73453;BME280;61687;56.232;43.854;2022-08-03T00:49:36;101030.50;;;16.14;79.34
73453;BME280;61687;56.232;43.854;2022-08-03T00:52:02;101023.41;;;16.13;79.30
73453;BME280;61687;56.232;43.854;2022-08-03T00:54:29;101032.84;;;16.12;79.34
73453;BME280;61687;56.232;43.854;2022-08-03T00:56:55;101028.13;;;16.13;79.29
73453;BME280;61687;56.232;43.854;2022-08-03T00:59:21;101030.06;;;16.12;79.13
73453;BME280;61687;56.232;43.854;2022-08-03T01:01:47;101030.47;;;16.11;79.28
73453;BME280;61687;56.232;43.854;2022-08-03T01:04:13;101031.66;;;16.10;79.14
73453;BME280;61687;56.232;43.854;2022-08-03T01:09:13;101036.00;;;16.07;79.12
73453;BME280;61687;56.232;43.854;2022-08-03T01:15:21;101044.66;;;16.02;78.95
73453;BME280;61687;56.232;43.854;2022-08-03T01:17:56;101035.56;;;16.01;79.09
73453;BME280;61687;56.232;43.854;2022-08-03T01:20:26;101037.53;;;16.01;79.19
73453;BME280;61687;56.232;43.854;2022-08-03T01:22:59;101039.13;;;16.02;79.32
73453;BME280;61687;56.232;43.854;2022-08-03T01:31:11;101029.25;;;16.01;79.26
73453;BME280;61687;56.232;43.854;2022-08-03T01:33:46;101030.03;;;16.01;79.25
73453;BME280;61687;56.232;43.854;2022-08-03T01:36:28;101030.84;;;16.02;79.23
73453;BME280;61687;56.232;43.854;2022-08-03T01:39:02;101024.13;;;16.03;79.21
73453;BME280;61687;56.232;43.854;2022-08-03T01:41:35;101031.22;;;16.04;79.17
73453;BME280;61687;56.232;43.854;2022-08-03T01:44:07;101028.09;;;16.06;79.16
73453;BME280;61687;56.232;43.854;2022-08-03T01:46:33;101038.75;;;16.07;79.23
73453;BME280;61687;56.232;43.854;2022-08-03T01:49:00;101038.38;;;16.09;79.26
73453;BME280;61687;56.232;43.854;2022-08-03T01:51:29;101037.97;;;16.10;79.16
73453;BME280;61687;56.232;43.854;2022-08-03T01:53:57;101039.19;;;16.13;79.16
73453;BME280;61687;56.232;43.854;2022-08-03T01:56:26;101036.81;;;16.15;79.16
73453;BME280;61687;56.232;43.854;2022-08-03T01:58:55;101033.69;;;16.16;79.13
73453;BME280;61687;56.232;43.854;2022-08-03T02:01:24;101043.16;;;16.19;79.02
73453;BME280;61687;56.232;43.854;2022-08-03T02:03:51;101042.38;;;16.22;79.10
73453;BME280;61687;56.232;43.854;2022-08-03T02:06:20;101038.41;;;16.23;79.21
73453;BME280;61687;56.232;43.854;2022-08-03T02:08:48;101037.66;;;16.26;79.18
73453;BME280;61687;56.232;43.854;2022-08-03T02:11:16;101034.13;;;16.29;79.36
73453;BME280;61687;56.232;43.854;2022-08-03T02:13:43;101039.25;;;16.31;79.17
73453;BME280;61687;56.232;43.854;2022-08-03T02:16:12;101040.84;;;16.36;79.14
73453;BME280;61687;56.232;43.854;2022-08-03T02:18:39;101039.28;;;16.38;79.14
73453;BME280;61687;56.232;43.854;2022-08-03T02:21:08;101038.09;;;16.43;79.06
73453;BME280;61687;56.232;43.854;2022-08-03T02:23:36;101040.88;;;16.47;79.05
73453;BME280;61687;56.232;43.854;2022-08-03T02:26:05;101045.25;;;16.51;78.92
73453;BME280;61687;56.232;43.854;2022-08-03T02:28:36;101044.47;;;16.54;78.93
73453;BME280;61687;56.232;43.854;2022-08-03T02:31:04;101042.91;;;16.60;78.84
73453;BME280;61687;56.232;43.854;2022-08-03T02:33:37;101047.28;;;16.65;78.84
73453;BME280;61687;56.232;43.854;2022-08-03T02:36:04;101053.22;;;16.71;78.84
73453;BME280;61687;56.232;43.854;2022-08-03T02:38:33;101053.63;;;16.77;78.77
73453;BME280;61687;56.232;43.854;2022-08-03T02:41:04;101055.59;;;16.83;78.66
73453;BME280;61687;56.232;43.854;2022-08-03T02:43:34;101059.97;;;16.88;78.39
73453;BME280;61687;56.232;43.854;2022-08-03T02:46:00;101057.63;;;16.94;78.39
73453;BME280;61687;56.232;43.854;2022-08-03T02:48:28;101056.06;;;17.00;78.40
73453;BME280;61687;56.232;43.854;2022-08-03T02:50:57;101053.72;;;17.09;78.34
73453;BME280;61687;56.232;43.854;2022-08-03T02:53:25;101068.34;;;17.17;78.31
73453;BME280;61687;56.232;43.854;2022-08-03T02:55:52;101064.78;;;17.24;78.20
73453;BME280;61687;56.232;43.854;2022-08-03T02:58:20;101067.56;;;17.31;77.94
73453;BME280;61687;56.232;43.854;2022-08-03T03:00:49;101062.41;;;17.37;78.15
73453;BME280;61687;56.232;43.854;2022-08-03T03:03:19;101067.16;;;17.47;78.59
73453;BME280;61687;56.232;43.854;2022-08-03T03:05:47;101066.78;;;17.56;78.41
73453;BME280;61687;56.232;43.854;2022-08-03T03:08:16;101065.56;;;17.60;77.91
73453;BME280;61687;56.232;43.854;2022-08-03T03:10:43;101064.75;;;17.67;78.14
73453;BME280;61687;56.232;43.854;2022-08-03T03:13:10;101066.75;;;17.74;77.72
73453;BME280;61687;56.232;43.854;2022-08-03T03:15:39;101073.84;;;17.82;77.83
73453;BME280;61687;56.232;43.854;2022-08-03T03:18:06;101066.31;;;17.90;78.05
73453;BME280;61687;56.232;43.854;2022-08-03T03:20:36;101070.66;;;17.98;77.68
73453;BME280;61687;56.232;43.854;2022-08-03T03:23:03;101073.44;;;18.09;77.43
73453;BME280;61687;56.232;43.854;2022-08-03T03:25:30;101073.41;;;18.20;76.97
73453;BME280;61687;56.232;43.854;2022-08-03T03:27:58;101080.88;;;18.30;77.24
73453;BME280;61687;56.232;43.854;2022-08-03T03:30:25;101072.50;;;18.41;76.00
73453;BME280;61687;56.232;43.854;2022-08-03T03:32:51;101075.22;;;18.52;75.79
73453;BME280;61687;56.232;43.854;2022-08-03T03:35:17;101073.59;;;18.62;75.18
73453;BME280;61687;56.232;43.854;2022-08-03T03:37:43;101073.97;;;18.71;74.96
73453;BME280;61687;56.232;43.854;2022-08-03T03:40:09;101079.03;;;18.84;75.12
73453;BME280;61687;56.232;43.854;2022-08-03T03:42:36;101079.78;;;18.95;74.43
73453;BME280;61687;56.232;43.854;2022-08-03T03:45:04;101069.00;;;19.08;74.24
73453;BME280;61687;56.232;43.854;2022-08-03T03:47:30;101077.25;;;19.19;73.45
73453;BME280;61687;56.232;43.854;2022-08-03T03:49:57;101077.94;;;19.30;73.55
73453;BME280;61687;56.232;43.854;2022-08-03T03:52:23;101078.28;;;19.40;73.07
73453;BME280;61687;56.232;43.854;2022-08-03T03:54:49;101074.22;;;19.48;72.36
73453;BME280;61687;56.232;43.854;2022-08-03T03:57:15;101075.75;;;19.56;72.08
73453;BME280;61687;56.232;43.854;2022-08-03T03:59:41;101079.63;;;19.66;71.49
73453;BME280;61687;56.232;43.854;2022-08-03T04:02:08;101090.59;;;19.81;70.91
73453;BME280;61687;56.232;43.854;2022-08-03T04:04:35;101082.97;;;19.88;71.19
73453;BME280;61687;56.232;43.854;2022-08-03T04:07:23;101088.47;;;19.99;70.58
73453;BME280;61687;56.232;43.854;2022-08-03T04:10:14;101086.34;;;20.11;70.20
73453;BME280;61687;56.232;43.854;2022-08-03T04:13:01;101082.25;;;20.23;69.31
73453;BME280;61687;56.232;43.854;2022-08-03T04:15:30;101096.88;;;20.30;69.13
73453;BME280;61687;56.232;43.854;2022-08-03T04:17:58;101091.22;;;20.38;68.75
73453;BME280;61687;56.232;43.854;2022-08-03T04:20:27;101091.91;;;20.45;68.02
73453;BME280;61687;56.232;43.854;2022-08-03T04:22:54;101095.34;;;20.57;67.14
73453;BME280;61687;56.232;43.854;2022-08-03T04:25:24;101097.59;;;20.66;66.52
73453;BME280;61687;56.232;43.854;2022-08-03T04:27:52;101100.69;;;20.75;66.51
73453;BME280;61687;56.232;43.854;2022-08-03T04:30:21;101101.41;;;20.83;65.62
73453;BME280;61687;56.232;43.854;2022-08-03T04:32:48;101099.31;;;20.91;65.17
73453;BME280;61687;56.232;43.854;2022-08-03T04:35:17;101100.78;;;20.99;65.32
73453;BME280;61687;56.232;43.854;2022-08-03T04:37:46;101092.66;;;21.08;65.31
73453;BME280;61687;56.232;43.854;2022-08-03T04:40:24;101095.34;;;21.15;65.39
73453;BME280;61687;56.232;43.854;2022-08-03T04:42:53;101087.22;;;21.25;64.67
73453;BME280;61687;56.232;43.854;2022-08-03T04:45:20;101084.31;;;21.32;64.73
73453;BME280;61687;56.232;43.854;2022-08-03T04:47:47;101086.16;;;21.42;64.13
73453;BME280;61687;56.232;43.854;2022-08-03T04:50:15;101093.16;;;21.51;63.74
73453;BME280;61687;56.232;43.854;2022-08-03T04:52:41;101092.63;;;21.59;63.02
73453;BME280;61687;56.232;43.854;2022-08-03T04:55:08;101095.34;;;21.67;62.85
73453;BME280;61687;56.232;43.854;2022-08-03T04:57:34;101089.63;;;21.74;63.22
73453;BME280;61687;56.232;43.854;2022-08-03T05:00:00;101090.69;;;21.80;63.28
73453;BME280;61687;56.232;43.854;2022-08-03T05:02:26;101087.78;;;21.87;62.18
73453;BME280;61687;56.232;43.854;2022-08-03T05:04:52;101094.00;;;21.95;62.01
73453;BME280;61687;56.232;43.854;2022-08-03T05:07:18;101087.09;;;22.04;61.53
73453;BME280;61687;56.232;43.854;2022-08-03T05:09:44;101094.44;;;22.14;61.51
73453;BME280;61687;56.232;43.854;2022-08-03T05:12:10;101100.25;;;22.23;61.05
73453;BME280;61687;56.232;43.854;2022-08-03T05:14:37;101097.38;;;22.27;60.84
73453;BME280;61687;56.232;43.854;2022-08-03T05:17:04;101099.69;;;22.32;61.12
73453;BME280;61687;56.232;43.854;2022-08-03T05:19:30;101099.88;;;22.41;60.52
73453;BME280;61687;56.232;43.854;2022-08-03T05:21:57;101096.19;;;22.48;60.00
73453;BME280;61687;56.232;43.854;2022-08-03T05:24:23;101094.47;;;22.54;59.92
73453;BME280;61687;56.232;43.854;2022-08-03T05:26:49;101095.09;;;22.62;59.58
73453;BME280;61687;56.232;43.854;2022-08-03T05:29:15;101101.31;;;22.70;59.83
73453;BME280;61687;56.232;43.854;2022-08-03T05:31:41;101097.13;;;22.78;59.28
73453;BME280;61687;56.232;43.854;2022-08-03T05:34:07;101101.00;;;22.84;58.60
73453;BME280;61687;56.232;43.854;2022-08-03T05:36:32;101101.69;;;22.89;57.51
73453;BME280;61687;56.232;43.854;2022-08-03T05:38:58;101100.75;;;22.95;56.86
73453;BME280;61687;56.232;43.854;2022-08-03T05:41:24;101109.38;;;23.01;56.24
73453;BME280;61687;56.232;43.854;2022-08-03T05:43:51;101108.03;;;23.09;55.63
73453;BME280;61687;56.232;43.854;2022-08-03T05:46:18;101109.41;;;23.18;56.10
73453;BME280;61687;56.232;43.854;2022-08-03T05:48:45;101103.28;;;23.23;54.98
73453;BME280;61687;56.232;43.854;2022-08-03T05:51:12;101113.56;;;23.29;55.27
73453;BME280;61687;56.232;43.854;2022-08-03T05:53:42;101114.16;;;23.37;55.29
73453;BME280;61687;56.232;43.854;2022-08-03T05:56:09;101109.25;;;23.41;54.23
73453;BME280;61687;56.232;43.854;2022-08-03T05:58:35;101111.56;;;23.47;54.61
73453;BME280;61687;56.232;43.854;2022-08-03T06:01:01;101110.22;;;23.51;55.01
73453;BME280;61687;56.232;43.854;2022-08-03T06:03:27;101116.16;;;23.53;54.01
73453;BME280;61687;56.232;43.854;2022-08-03T06:05:53;101106.44;;;23.58;53.93
73453;BME280;61687;56.232;43.854;2022-08-03T06:08:21;101101.13;;;23.64;54.64
73453;BME280;61687;56.232;43.854;2022-08-03T06:10:49;101106.63;;;23.67;53.96
73453;BME280;61687;56.232;43.854;2022-08-03T06:13:15;101102.94;;;23.70;53.49
73453;BME280;61687;56.232;43.854;2022-08-03T06:15:41;101104.31;;;23.79;52.86
73453;BME280;61687;56.232;43.854;2022-08-03T06:18:07;101101.31;;;23.86;53.08
73453;BME280;61687;56.232;43.854;2022-08-03T06:20:33;101099.13;;;23.94;52.82
73453;BME280;61687;56.232;43.854;2022-08-03T06:22:59;101110.13;;;24.01;52.51
73453;BME280;61687;56.232;43.854;2022-08-03T06:25:25;101115.91;;;24.10;52.34
73453;BME280;61687;56.232;43.854;2022-08-03T06:27:51;101112.13;;;24.17;51.48
73453;BME280;61687;56.232;43.854;2022-08-03T06:30:17;101107.19;;;24.21;52.04
73453;BME280;61687;56.232;43.854;2022-08-03T06:32:43;101111.03;;;24.27;52.28
73453;BME280;61687;56.232;43.854;2022-08-03T06:35:09;101109.25;;;24.34;51.49
73453;BME280;61687;56.232;43.854;2022-08-03T06:37:46;101107.38;;;24.43;50.71
73453;BME280;61687;56.232;43.854;2022-08-03T06:40:14;101113.56;;;24.51;48.66
73453;BME280;61687;56.232;43.854;2022-08-03T06:42:41;101109.53;;;24.52;48.43
73453;BME280;61687;56.232;43.854;2022-08-03T06:45:07;101115.81;;;24.56;48.94
73453;BME280;61687;56.232;43.854;2022-08-03T06:47:35;101115.00;;;24.69;48.71
73453;BME280;61687;56.232;43.854;2022-08-03T06:50:03;101114.28;;;24.81;48.90
73453;BME280;61687;56.232;43.854;2022-08-03T06:52:29;101105.09;;;24.94;48.52
73453;BME280;61687;56.232;43.854;2022-08-03T06:54:56;101111.56;;;25.04;49.11
73453;BME280;61687;56.232;43.854;2022-08-03T06:57:22;101108.00;;;25.16;48.54
73453;BME280;61687;56.232;43.854;2022-08-03T06:59:48;101101.59;;;25.28;48.57
73453;BME280;61687;56.232;43.854;2022-08-03T07:02:14;101110.75;;;25.42;48.59
73453;BME280;61687;56.232;43.854;2022-08-03T07:04:40;101101.22;;;25.52;48.24
73453;BME280;61687;56.232;43.854;2022-08-03T07:07:06;101110.38;;;25.66;48.00
73453;BME280;61687;56.232;43.854;2022-08-03T07:09:32;101106.31;;;25.80;48.69
73453;BME280;61687;56.232;43.854;2022-08-03T07:11:58;101106.56;;;25.95;48.15
73453;BME280;61687;56.232;43.854;2022-08-03T07:14:27;101108.09;;;26.09;47.98
73453;BME280;61687;56.232;43.854;2022-08-03T07:16:52;101104.13;;;26.19;48.16
73453;BME280;61687;56.232;43.854;2022-08-03T07:19:18;101107.03;;;26.38;48.14
73453;BME280;61687;56.232;43.854;2022-08-03T07:21:44;101103.69;;;26.52;47.92
73453;BME280;61687;56.232;43.854;2022-08-03T07:24:10;101100.03;;;26.65;45.78
73453;BME280;61687;56.232;43.854;2022-08-03T07:26:36;101106.00;;;26.76;44.84
73453;BME280;61687;56.232;43.854;2022-08-03T07:29:02;101102.34;;;26.89;44.91
73453;BME280;61687;56.232;43.854;2022-08-03T07:31:28;101105.81;;;27.02;44.38
73453;BME280;61687;56.232;43.854;2022-08-03T07:33:54;101106.16;;;27.13;41.48
73453;BME280;61687;56.232;43.854;2022-08-03T07:36:21;101097.59;;;27.26;43.11
73453;BME280;61687;56.232;43.854;2022-08-03T07:38:47;101098.06;;;27.34;42.88
73453;BME280;61687;56.232;43.854;2022-08-03T07:41:13;101103.72;;;27.43;42.29
73453;BME280;61687;56.232;43.854;2022-08-03T07:43:39;101110.31;;;27.50;43.89
73453;BME280;61687;56.232;43.854;2022-08-03T07:46:05;101102.50;;;27.54;41.78
73453;BME280;61687;56.232;43.854;2022-08-03T07:48:31;101092.16;;;27.51;42.99
73453;BME280;61687;56.232;43.854;2022-08-03T07:50:56;101099.50;;;27.48;43.10
73453;BME280;61687;56.232;43.854;2022-08-03T07:53:22;101107.94;;;27.48;43.40
73453;BME280;61687;56.232;43.854;2022-08-03T07:55:48;101106.38;;;27.47;43.26
73453;BME280;61687;56.232;43.854;2022-08-03T07:58:14;101104.66;;;27.40;40.41
73453;BME280;61687;56.232;43.854;2022-08-03T08:00:42;101102.78;;;27.37;40.94
73453;BME280;61687;56.232;43.854;2022-08-03T08:03:09;101101.97;;;27.37;41.79
73453;BME280;61687;56.232;43.854;2022-08-03T08:05:36;101102.91;;;27.34;40.74
73453;BME280;61687;56.232;43.854;2022-08-03T08:08:03;101102.75;;;27.28;42.89
73453;BME280;61687;56.232;43.854;2022-08-03T08:10:29;101099.94;;;27.28;43.50
73453;BME280;61687;56.232;43.854;2022-08-03T08:12:55;101097.72;;;27.23;41.83
73453;BME280;61687;56.232;43.854;2022-08-03T08:15:22;101108.34;;;27.19;40.56
73453;BME280;61687;56.232;43.854;2022-08-03T08:17:53;101101.78;;;27.22;41.59
73453;BME280;61687;56.232;43.854;2022-08-03T08:20:22;101093.53;;;27.27;42.46
73453;BME280;61687;56.232;43.854;2022-08-03T08:22:48;101102.28;;;27.29;40.77
73453;BME280;61687;56.232;43.854;2022-08-03T08:25:14;101104.66;;;27.31;40.08
73453;BME280;61687;56.232;43.854;2022-08-03T08:27:47;101104.34;;;27.38;41.56
73453;BME280;61687;56.232;43.854;2022-08-03T08:30:15;101100.91;;;27.43;40.91
73453;BME280;61687;56.232;43.854;2022-08-03T08:32:43;101099.03;;;27.50;40.91
73453;BME280;61687;56.232;43.854;2022-08-03T08:35:10;101096.81;;;27.45;41.58
73453;BME280;61687;56.232;43.854;2022-08-03T08:37:37;101097.94;;;27.47;42.24
73453;BME280;61687;56.232;43.854;2022-08-03T08:40:05;101100.59;;;27.51;41.91
73453;BME280;61687;56.232;43.854;2022-08-03T08:42:32;101101.38;;;27.42;40.97
73453;BME280;61687;56.232;43.854;2022-08-03T08:45:01;101094.63;;;27.39;39.36
73453;BME280;61687;56.232;43.854;2022-08-03T08:47:30;101095.22;;;27.25;39.68
73453;BME280;61687;56.232;43.854;2022-08-03T08:49:57;101100.16;;;27.02;38.74
73453;BME280;61687;56.232;43.854;2022-08-03T08:52:25;101095.47;;;26.99;38.56
73453;BME280;61687;56.232;43.854;2022-08-03T08:54:58;101104.53;;;26.94;38.77
73453;BME280;61687;56.232;43.854;2022-08-03T08:57:28;101096.28;;;26.99;40.04
73453;BME280;61687;56.232;43.854;2022-08-03T08:59:55;101102.22;;;27.11;41.45
73453;BME280;61687;56.232;43.854;2022-08-03T09:02:25;101103.84;;;27.21;42.20
73453;BME280;61687;56.232;43.854;2022-08-03T09:04:53;101104.16;;;27.23;41.71
73453;BME280;61687;56.232;43.854;2022-08-03T09:07:20;101099.00;;;27.31;42.59
73453;BME280;61687;56.232;43.854;2022-08-03T09:09:46;101103.56;;;27.38;43.27
73453;BME280;61687;56.232;43.854;2022-08-03T09:12:13;101105.75;;;27.43;42.62
73453;BME280;61687;56.232;43.854;2022-08-03T09:14:39;101100.75;;;27.47;41.26
73453;BME280;61687;56.232;43.854;2022-08-03T09:17:05;101102.19;;;27.52;41.22
73453;BME280;61687;56.232;43.854;2022-08-03T09:19:32;101104.53;;;27.53;42.54
73453;BME280;61687;56.232;43.854;2022-08-03T09:22:12;101107.16;;;27.48;41.46
73453;BME280;61687;56.232;43.854;2022-08-03T09:24:57;101099.00;;;27.40;42.95
73453;BME280;61687;56.232;43.854;2022-08-03T09:27:23;101114.50;;;27.45;42.53
73453;BME280;61687;56.232;43.854;2022-08-03T09:29:51;101102.19;;;27.52;41.96
73453;BME280;61687;56.232;43.854;2022-08-03T09:32:22;101111.91;;;27.60;41.92
73453;BME280;61687;56.232;43.854;2022-08-03T09:34:49;101107.50;;;27.68;42.37
73453;BME280;61687;56.232;43.854;2022-08-03T09:37:17;101109.56;;;27.77;41.90
73453;BME280;61687;56.232;43.854;2022-08-03T09:39:44;101106.91;;;27.83;41.79
73453;BME280;61687;56.232;43.854;2022-08-03T09:42:15;101109.06;;;27.88;41.02
73453;BME280;61687;56.232;43.854;2022-08-03T09:44:47;101107.69;;;27.93;41.83
73453;BME280;61687;56.232;43.854;2022-08-03T09:47:15;101115.81;;;27.91;41.16
73453;BME280;61687;56.232;43.854;2022-08-03T09:50:00;101110.19;;;27.91;41.75
73453;BME280;61687;56.232;43.854;2022-08-03T09:52:34;101110.97;;;27.91;41.79
73453;BME280;61687;56.232;43.854;2022-08-03T09:55:06;101112.53;;;27.92;41.35
73453;BME280;61687;56.232;43.854;2022-08-03T09:57:33;101113.47;;;27.89;40.52
73453;BME280;61687;56.232;43.854;2022-08-03T10:00:09;101117.22;;;27.86;39.78
73453;BME280;61687;56.232;43.854;2022-08-03T10:02:40;101123.16;;;27.88;40.12
73453;BME280;61687;56.232;43.854;2022-08-03T10:05:08;101128.03;;;27.88;40.53
73453;BME280;61687;56.232;43.854;2022-08-03T10:07:45;101119.88;;;27.90;41.32
73453;BME280;61687;56.232;43.854;2022-08-03T10:10:12;101120.19;;;28.01;40.34
73453;BME280;61687;56.232;43.854;2022-08-03T10:12:40;101114.72;;;28.16;39.06
73453;BME280;61687;56.232;43.854;2022-08-03T10:15:07;101120.66;;;28.27;38.46
73453;BME280;61687;56.232;43.854;2022-08-03T10:17:33;101115.94;;;28.86;36.78
73453;BME280;61687;56.232;43.854;2022-08-03T10:19:59;101121.13;;;29.70;35.42
73453;BME280;61687;56.232;43.854;2022-08-03T10:22:32;101114.81;;;30.95;34.64
73453;BME280;61687;56.232;43.854;2022-08-03T10:25:02;101116.25;;;32.68;33.22
73453;BME280;61687;56.232;43.854;2022-08-03T10:27:33;101119.78;;;34.45;31.02
73453;BME280;61687;56.232;43.854;2022-08-03T10:30:01;101106.44;;;35.86;29.22
73453;BME280;61687;56.232;43.854;2022-08-03T10:32:58;101100.53;;;37.26;27.45
73453;BME280;61687;56.232;43.854;2022-08-03T10:35:28;101097.72;;;38.16;26.09
73453;BME280;61687;56.232;43.854;2022-08-03T10:37:57;101110.31;;;38.99;25.53
73453;BME280;61687;56.232;43.854;2022-08-03T10:40:26;101108.22;;;39.27;24.74
73453;BME280;61687;56.232;43.854;2022-08-03T10:42:55;101102.13;;;38.90;25.76
73453;BME280;61687;56.232;43.854;2022-08-03T10:45:25;101099.09;;;37.57;27.08
73453;BME280;61687;56.232;43.854;2022-08-03T10:47:53;101096.97;;;36.39;28.44
73453;BME280;61687;56.232;43.854;2022-08-03T10:50:22;101102.28;;;35.34;30.20
73453;BME280;61687;56.232;43.854;2022-08-03T10:53:03;101098.31;;;34.27;32.21
73453;BME280;61687;56.232;43.854;2022-08-03T10:55:43;101097.53;;;33.31;32.40
73453;BME280;61687;56.232;43.854;2022-08-03T11:01:05;101100.97;;;32.01;33.85
73453;BME280;61687;56.232;43.854;2022-08-03T11:03:31;101092.50;;;31.60;34.84
73453;BME280;61687;56.232;43.854;2022-08-03T11:06:15;101097.22;;;31.21;35.05
73453;BME280;61687;56.232;43.854;2022-08-03T11:08:45;101100.47;;;30.99;35.91
73453;BME280;61687;56.232;43.854;2022-08-03T11:13:57;101092.31;;;30.86;35.00
73453;BME280;61687;56.232;43.854;2022-08-03T11:16:25;101088.78;;;30.91;36.12
73453;BME280;61687;56.232;43.854;2022-08-03T11:18:59;101084.47;;;30.96;36.08
73453;BME280;61687;56.232;43.854;2022-08-03T11:27:17;101090.34;;;30.92;37.25
73453;BME280;61687;56.232;43.854;2022-08-03T11:35:09;101081.25;;;31.45;35.35
73453;BME280;61687;56.232;43.854;2022-08-03T11:40:36;101084.81;;;32.72;33.77
73453;BME280;61687;56.232;43.854;2022-08-03T11:43:07;101080.91;;;32.69;33.16
73453;BME280;61687;56.232;43.854;2022-08-03T11:45:35;101084.22;;;32.62;34.88
73453;BME280;61687;56.232;43.854;2022-08-03T11:48:28;101087.22;;;33.39;34.33
73453;BME280;61687;56.232;43.854;2022-08-03T11:51:06;101073.78;;;35.39;31.21
73453;BME280;61687;56.232;43.854;2022-08-03T11:53:33;101076.97;;;37.19;27.42
73453;BME280;61687;56.232;43.854;2022-08-03T11:56:01;101077.22;;;38.71;26.49
73453;BME280;61687;56.232;43.854;2022-08-03T11:58:28;101077.78;;;39.10;26.89
73453;BME280;61687;56.232;43.854;2022-08-03T12:01:04;101084.06;;;38.68;26.08
73453;BME280;61687;56.232;43.854;2022-08-03T12:03:34;101078.38;;;38.22;26.36
73453;BME280;61687;56.232;43.854;2022-08-03T12:06:00;101076.13;;;37.25;27.59
73453;BME280;61687;56.232;43.854;2022-08-03T12:08:28;101076.09;;;36.25;28.04
73453;BME280;61687;56.232;43.854;2022-08-03T12:10:56;101070.69;;;35.37;29.65
73453;BME280;61687;56.232;43.854;2022-08-03T12:13:23;101075.81;;;34.68;30.31
73453;BME280;61687;56.232;43.854;2022-08-03T12:15:56;101074.78;;;33.97;31.34
73453;BME280;61687;56.232;43.854;2022-08-03T12:18:24;101073.03;;;33.39;32.42
73453;BME280;61687;56.232;43.854;2022-08-03T12:20:51;101070.78;;;32.94;33.64
73453;BME280;61687;56.232;43.854;2022-08-03T12:23:18;101067.63;;;32.49;33.47
73453;BME280;61687;56.232;43.854;2022-08-03T12:25:46;101072.19;;;32.08;33.28
73453;BME280;61687;56.232;43.854;2022-08-03T12:28:18;101067.28;;;31.82;33.79
73453;BME280;61687;56.232;43.854;2022-08-03T12:30:48;101076.91;;;32.49;33.24
73453;BME280;61687;56.232;43.854;2022-08-03T12:33:26;101077.78;;;33.60;31.81
73453;BME280;61687;56.232;43.854;2022-08-03T12:36:02;101077.84;;;33.88;32.38
73453;BME280;61687;56.232;43.854;2022-08-03T12:38:30;101068.22;;;33.63;31.41
73453;BME280;61687;56.232;43.854;2022-08-03T12:41:07;101073.88;;;33.46;32.99
73453;BME280;61687;56.232;43.854;2022-08-03T12:43:49;101075.06;;;33.28;31.57
73453;BME280;61687;56.232;43.854;2022-08-03T12:46:17;101074.91;;;32.99;31.80
73453;BME280;61687;56.232;43.854;2022-08-03T12:49:13;101066.94;;;32.97;32.50
73453;BME280;61687;56.232;43.854;2022-08-03T12:54:21;101066.72;;;35.52;29.26
73453;BME280;61687;56.232;43.854;2022-08-03T12:57:04;101071.94;;;36.57;27.97
73453;BME280;61687;56.232;43.854;2022-08-03T12:59:41;101070.06;;;37.53;26.51
73453;BME280;61687;56.232;43.854;2022-08-03T13:02:19;101069.41;;;38.85;25.48
73453;BME280;61687;56.232;43.854;2022-08-03T13:04:46;101069.75;;;40.13;24.97
73453;BME280;61687;56.232;43.854;2022-08-03T13:07:14;101067.41;;;41.27;22.93
73453;BME280;61687;56.232;43.854;2022-08-03T13:09:52;101066.44;;;42.08;21.42
73453;BME280;61687;56.232;43.854;2022-08-03T13:12:20;101067.78;;;42.38;21.55
73453;BME280;61687;56.232;43.854;2022-08-03T13:14:50;101074.19;;;42.85;21.33
73453;BME280;61687;56.232;43.854;2022-08-03T13:17:17;101069.22;;;43.35;20.75
73453;BME280;61687;56.232;43.854;2022-08-03T13:19:44;101069.91;;;43.84;21.24
73453;BME280;61687;56.232;43.854;2022-08-03T13:22:17;101067.38;;;44.13;20.59